Flight Track Log - Related Links

Times and Time Zones

All times are in EST time to prevent confusion due to time zone crossing. See the TCF3516 flight status page for this flight to view local times or setup timezone preferences in your user account.

Time Position Orientation Groundspeed Altitude Reporting Facility
EST Latitude Longitude Course Direction KTS MPH feet Rate Location/Type
Mon 04:31:20 PM 41.9167 -87.9000 139° Southeast 190 219 2,600  Level Chicago TRACON
Mon 04:33:01 PM 41.8114 -87.8428 158° South 260 299 6,400 2,724 Climbing Chicago Center
Mon 04:34:03 PM 41.7294 -87.7844 152° Southeast 304 350 10,000 2,855 Climbing Chicago Center
Mon 04:35:05 PM 41.6511 -87.7311 153° Southeast 332 382 12,300 2,468 Climbing Chicago Center
Mon 04:36:00 PM 41.5680 -87.4303 139° Southeast  Level Estimated
Mon 04:36:07 PM 41.5400 -87.6528 152° Southeast 373 429 15,100  Level Chicago Center
Mon 04:37:09 PM 41.4425 -87.5858 153° Southeast 389 448 17,200 2,129 Climbing Chicago Center
Mon 04:38:11 PM 41.3311 -87.5567 169° South 407 468 19,500 2,256 Climbing Chicago Center
Mon 04:39:14 PM 41.2178 -87.5369 173° South 406 467 21,900 2,129 Climbing Chicago Center
Mon 04:40:15 PM 41.1036 -87.5083 169° South 416 479 23,900 2,000 Climbing Chicago Center
Mon 04:41:17 PM 40.9875 -87.4764 168° South 422 486 26,000 1,694 Climbing Chicago Center
Mon 04:42:19 PM 40.8694 -87.4436 168° South 432 497 27,400 1,500 Climbing Chicago Center
Mon 04:43:21 PM 40.7233 -87.4072 169° South 443 510 29,100 1,344 Climbing Chicago Center
Mon 04:44:24 PM 40.6017 -87.3750 169° South 445 512 30,200 1,056 Climbing Chicago Center
Mon 04:45:26 PM 40.4769 -87.3411 168° South 455 524 31,300 1,210 Climbing Chicago Center
Mon 04:46:28 PM 40.3494 -87.2400 149° Southeast 488 562 32,700 1,210 Climbing Chicago Center
Mon 04:47:30 PM 40.2389 -87.1367 144° Southeast 491 565 33,800 1,113 Climbing Chicago Center
Mon 04:48:32 PM 40.1294 -87.0339 144° Southeast 486 559 35,000 581 Climbing Chicago Center
Mon 04:49:34 PM 40.0197 -86.9339 145° Southeast 484 557 35,000  Level Chicago Center
Mon 04:50:26 PM 39.9092 -86.8364 146° Southeast 480 552 35,000  Level Indianapolis Center
Mon 04:51:28 PM 39.7975 -86.7464 148° Southeast 477 549 35,000  Level Indianapolis Center
Mon 04:52:30 PM 39.6961 -86.6383 141° Southeast 491 565 35,000  Level Indianapolis Center
Mon 04:53:32 PM 39.6261 -86.4789 120° Southeast 515 593 35,000  Level Indianapolis Center
Mon 04:54:35 PM 39.5431 -86.2883 119° Southeast 520 598 35,000  Level Indianapolis Center
Mon 04:55:37 PM 39.4733 -86.1300 120° Southeast 518 596 35,000  Level Indianapolis Center
Mon 04:56:39 PM 39.4017 -85.9686 120° Southeast 520 598 35,000  Level Indianapolis Center
Mon 04:57:41 PM 39.3306 -85.8075 120° Southeast 521 600 35,000  Level Indianapolis Center
Mon 04:58:43 PM 39.2586 -85.6450 120° Southeast 523 602 35,000  Level Indianapolis Center
Mon 04:59:45 PM 39.1722 -85.4536 120° Southeast 518 596 35,000  Level Indianapolis Center
Mon 05:00:47 PM 39.1006 -85.2950 120° Southeast 515 593 35,000  Level Indianapolis Center
Mon 05:01:49 PM 39.0294 -85.1358 120° Southeast 516 594 35,000  Level Indianapolis Center
Mon 05:02:51 PM 38.9581 -84.9794 120° Southeast 512 589 35,000  Level Indianapolis Center
Mon 05:03:53 PM 38.8867 -84.8217 120° Southeast 511 588 35,000  Level Indianapolis Center
Mon 05:04:55 PM 38.7989 -84.6342 121° Southeast 514 592 35,000  Level Indianapolis Center
Mon 05:05:57 PM 38.7353 -84.4944 120° Southeast 515 593 35,000  Level Indianapolis Center
Mon 05:06:59 PM 38.6436 -84.3117 123° Southeast 513 590 35,000  Level Indianapolis Center
Mon 05:08:01 PM 38.5450 -84.2044 140° Southeast 493 567 35,000  Level Indianapolis Center
Mon 05:09:03 PM 38.4383 -84.0942 141° Southeast 491 565 35,000  Level Indianapolis Center
Mon 05:10:05 PM 38.3314 -83.9864 142° Southeast 489 563 35,000  Level Indianapolis Center
Mon 05:11:08 PM 38.2056 -83.8597 142° Southeast 493 567 35,000  Level Indianapolis Center
Mon 05:12:09 PM 38.0994 -83.7511 141° Southeast 489 563 35,000  Level Indianapolis Center
Mon 05:13:11 PM 37.9919 -83.6444 142° Southeast 488 562 35,000  Level Indianapolis Center
Mon 05:14:13 PM 37.8858 -83.5383 142° Southeast 485 558 35,000 -581 Level Indianapolis Center
Mon 05:15:15 PM 37.7794 -83.4331 142° Southeast 485 558 33,800 -968 Descending Indianapolis Center
Mon 05:16:17 PM 37.6731 -83.3272 142° Southeast 486 559 33,000 -387 Descending Indianapolis Center
Mon 05:17:19 PM 37.5472 -83.2042 142° Southeast 488 562 33,000 -484 Level Indianapolis Center
Mon 05:18:21 PM 37.4392 -83.0978 142° Southeast 490 564 32,000 -1,024 Descending Indianapolis Center
Mon 05:19:22 PM 37.3314 -82.9922 142° Southeast 488 562 30,900 -1,073 Descending Indianapolis Center
Mon 05:20:24 PM 37.2250 -82.8883 142° Southeast 484 557 29,800 -919 Descending Indianapolis Center
Mon 05:21:26 PM 37.1197 -82.7853 142° Southeast 477 549 29,000 -387 Descending Indianapolis Center
Mon 05:22:28 PM 37.0139 -82.6828 142° Southeast 473 544 29,000  Level Indianapolis Center
Mon 05:23:30 PM 36.9078 -82.5814 143° Southeast 472 543 29,000  Level Indianapolis Center
Mon 05:24:32 PM 36.8014 -82.4828 143° Southeast 472 543 29,000 -242 Level Indianapolis Center
Mon 05:25:34 PM 36.6900 -82.3997 149° Southeast 464 534 28,500 -726 Descending Indianapolis Center
Mon 05:26:36 PM 36.5628 -82.3028 149° Southeast 459 528 27,500 -947 Descending Indianapolis Center
Mon 05:27:47 PM 36.4347 -82.2067 149° Southeast 452 520 26,400 -916 Descending Atlanta Center
Mon 05:28:47 PM 36.3292 -82.1292 149° Southeast 447 514 25,500 -900 Descending Atlanta Center
Mon 05:29:47 PM 36.2300 -82.0517 148° Southeast 440 506 24,600 -900 Descending Atlanta Center
Mon 05:30:47 PM 36.1264 -81.9769 150° Southeast 434 499 23,700 -900 Descending Atlanta Center
Mon 05:31:47 PM 36.0272 -81.9000 148° Southeast 434 499 22,800 -1,450 Descending Atlanta Center
Mon 05:32:47 PM 35.9383 -81.8356 150° Southeast 427 491 20,800 -2,637 Descending Atlanta Center
Mon 05:33:18 PM 35.8750 -81.7886 149° Southeast 407 468 18,800 -2,700 Descending Atlanta Center
Mon 05:33:47 PM 35.8411 -81.7642 150° Southeast 416 479 18,100 -2,323 Descending Atlanta Center
Mon 05:33:49 PM 35.8306 -81.7542 142° Southeast 411 473 17,600 -2,500 Descending Atlanta Center
Mon 05:34:47 PM 35.7458 -81.6925 149° Southeast 404 465 15,600 -2,504 Descending Atlanta Center
Mon 05:35:56 PM 35.6358 -81.6114 149° Southeast 366 421 12,300 -1,800 Descending Atlanta Center
Mon 05:36:47 PM 35.5739 -81.5417 138° Southeast 367 422 12,000 -327 Descending Atlanta Center
Mon 05:36:51 PM 35.5717 -81.5392 138° Southeast 325 374 12,000  Level Atlanta Center
Mon 05:37:47 PM 35.5178 -81.4542 128° Southeast 341 392 12,000 -98 Level Atlanta Center
Mon 05:37:52 PM 35.5156 -81.4489 117° Southeast 324 373 11,900 -1,400 Descending Atlanta Center
Mon 05:38:47 PM 35.4639 -81.3742 130° Southeast 328 377 10,600 -1,701 Descending Atlanta Center
Mon 05:38:59 PM 35.4508 -81.3492 123° Southeast 327 376 10,000 -1,574 Descending Atlanta Center
Mon 05:39:48 PM 35.4056 -81.2844 131° Southeast 321 369 9,000 -522 Descending Atlanta Center
Mon 05:40:54 PM 35.3408 -81.1872 129° Southeast 322 371 9,000  Level Atlanta Center
Mon 05:41:47 PM 35.2914 -81.1203 132° Southeast 323 372 9,000  Level Atlanta Center
Mon 05:41:49 PM 35.2892 -81.1128 110° East 320 368 9,000 -100 Level Atlanta Center
Mon 05:42:47 PM 35.2294 -81.0664 148° Southeast 275 316 8,900 -295 Descending Atlanta Center
Mon 05:42:50 PM 35.2275 -81.0717 246° West 254 292 8,700 -1,781 Descending Atlanta Center
Mon 05:43:51 PM 35.1564 -81.0667 177° South 246 283 7,000 -1,820 Descending Atlanta Center
Mon 05:44:52 PM 35.0939 -81.0611 176° South 223 257 5,000 -1,967 Descending Atlanta Center
Mon 05:45:53 PM 35.0653 -81.0064 123° Southeast 228 262 3,000 -1,279 Descending Atlanta Center
Mon 05:46:54 PM 35.1103 -80.9717 32° Northeast 180 207 2,400 -689 Descending Atlanta Center
Mon 05:47:55 PM 35.1411 -80.9503 30° Northeast 112 129 1,600 -595 Descending Atlanta Center
Mon 05:48:55 PM 35.1747 -80.9542 355° North 112 129 1,200 -400 Descending Atlanta Center

Login

Don't have an account? Register now (free) for customized features, flight alerts, and more!